Time;durP1;ratioP1;P1;durP2;ratioP2;P2;SDS_P1;SDS_P2;PMS_P1;PMS_P2;Temp;Humidity;BMP_temperature;BMP_pressure;BME280_temperature;BME280_humidity;BME280_pressure;Samples;Min_cycle;Max_cycle;Signal;HPM_P1;HPM_P2
2023/03/19 00:00:06;;;;;;;9.10;4.73;;;10.80;99.90;;;;;;5077709;28;20044;-83
2023/03/19 00:02:32;;;;;;;8.77;5.53;;;10.80;99.90;;;;;;5094367;28;20774;-83
2023/03/19 00:05:01;;;;;;;7.57;4.30;;;10.90;99.90;;;;;;5095858;28;20274;-83
2023/03/19 00:07:26;;;;;;;8.73;4.83;;;10.90;99.90;;;;;;5095203;28;20039;-83
2023/03/19 00:09:52;;;;;;;9.23;4.60;;;10.90;99.90;;;;;;5094986;28;20328;-83
2023/03/19 00:12:18;;;;;;;8.33;5.07;;;10.90;99.90;;;;;;5094096;28;20059;-83
2023/03/19 00:14:47;;;;;;;7.50;4.43;;;10.90;99.90;;;;;;5095101;28;20052;-83
2023/03/19 00:17:13;;;;;;;7.13;4.53;;;10.90;99.90;;;;;;5077114;28;20495;-83
2023/03/19 00:19:38;;;;;;;7.73;4.80;;;10.90;99.90;;;;;;5095130;28;20378;-83
2023/03/19 00:22:04;;;;;;;7.57;4.47;;;10.90;99.90;;;;;;5095179;28;20044;-83
2023/03/19 00:24:30;;;;;;;8.50;4.67;;;10.90;99.90;;;;;;5094945;28;20543;-84
2023/03/19 00:26:56;;;;;;;10.50;5.13;;;11.00;99.90;;;;;;5095138;28;20131;-82
2023/03/19 00:29:22;;;;;;;6.43;4.40;;;11.00;99.90;;;;;;5093768;28;20447;-83
2023/03/19 00:31:48;;;;;;;6.77;4.53;;;11.00;99.90;;;;;;5095467;28;20098;-83
2023/03/19 00:34:17;;;;;;;9.07;5.40;;;11.00;99.90;;;;;;5094792;28;20499;-82
2023/03/19 00:36:48;;;;;;;8.13;5.13;;;11.00;99.90;;;;;;5094706;28;20301;-83
2023/03/19 00:39:14;;;;;;;9.83;5.33;;;10.90;99.90;;;;;;5095506;28;20274;-83
2023/03/19 00:41:40;;;;;;;7.80;4.97;;;11.00;99.90;;;;;;5093159;28;20787;-83
2023/03/19 00:44:06;;;;;;;7.17;4.50;;;11.00;99.90;;;;;;5077428;28;20055;-83
2023/03/19 00:46:32;;;;;;;7.43;4.70;;;11.00;99.90;;;;;;5095132;28;20091;-85
2023/03/19 00:48:58;;;;;;;6.80;4.53;;;11.00;99.90;;;;;;5095224;28;20337;-83
2023/03/19 00:51:27;;;;;;;6.97;4.70;;;11.00;99.90;;;;;;5094449;28;20048;-82
2023/03/19 00:53:53;;;;;;;8.07;4.60;;;11.00;99.90;;;;;;5092842;28;20565;-82
2023/03/19 00:56:19;;;;;;;8.33;4.17;;;10.90;99.90;;;;;;5093448;28;20386;-82
2023/03/19 00:58:45;;;;;;;6.50;4.33;;;11.00;99.90;;;;;;5094661;28;20113;-82
2023/03/19 01:01:12;;;;;;;6.47;4.13;;;11.00;99.90;;;;;;5077110;28;20286;-82
2023/03/19 01:03:39;;;;;;;6.63;4.30;;;11.00;99.90;;;;;;5094298;28;20052;-82
2023/03/19 01:06:05;;;;;;;6.23;4.20;;;10.90;99.90;;;;;;5095015;28;20381;-81
2023/03/19 01:08:31;;;;;;;8.03;4.50;;;10.90;99.90;;;;;;5094038;28;20298;-81
2023/03/19 01:11:08;;;;;;;6.43;3.80;;;10.90;99.90;;;;;;5093991;28;20812;-83
2023/03/19 01:13:34;;;;;;;6.50;4.10;;;10.90;99.90;;;;;;5095026;28;20426;-83
2023/03/19 01:16:00;;;;;;;7.40;4.10;;;10.90;99.90;;;;;;5094158;28;20356;-83
2023/03/19 01:18:25;;;;;;;7.47;4.10;;;10.90;99.90;;;;;;5092878;28;20274;-83
2023/03/19 01:20:51;;;;;;;6.33;3.80;;;10.80;99.90;;;;;;5093025;28;20051;-83
2023/03/19 01:23:17;;;;;;;6.47;4.23;;;10.90;99.90;;;;;;5094041;28;20419;-83
2023/03/19 01:25:46;;;;;;;6.73;3.97;;;10.80;99.90;;;;;;5094050;28;20460;-82
2023/03/19 01:28:12;;;;;;;6.17;4.23;;;10.80;99.90;;;;;;5094115;28;20156;-81
2023/03/19 01:30:39;;;;;;;6.10;4.10;;;10.80;99.90;;;;;;5094252;28;20348;-82
2023/03/19 01:33:06;;;;;;;6.43;3.73;;;10.80;99.90;;;;;;5094396;28;20048;-81
2023/03/19 01:35:32;;;;;;;7.57;3.90;;;10.80;99.90;;;;;;5093824;28;20768;-82
2023/03/19 01:37:58;;;;;;;8.23;3.83;;;10.80;99.90;;;;;;5093074;28;20365;-82
2023/03/19 01:40:24;;;;;;;6.47;4.10;;;10.80;99.90;;;;;;5093843;28;20051;-81
2023/03/19 01:42:55;;;;;;;7.87;4.73;;;10.80;99.90;;;;;;5093655;28;20493;-82
2023/03/19 01:45:36;;;;;;;6.57;3.90;;;10.70;99.90;;;;;;5093786;28;20054;-82
2023/03/19 01:48:03;;;;;;;7.10;3.47;;;10.70;99.90;;;;;;5093665;28;20702;-83
2023/03/19 01:50:41;;;;;;;7.07;3.90;;;10.70;99.90;;;;;;5093921;28;20278;-82
2023/03/19 01:53:10;;;;;;;7.30;4.07;;;10.70;99.90;;;;;;5097019;28;20302;-82
2023/03/19 01:55:36;;;;;;;6.67;3.70;;;10.70;99.90;;;;;;5098442;28;20595;-82
2023/03/19 01:58:02;;;;;;;5.60;3.30;;;10.60;99.90;;;;;;5097862;28;20274;-82
2023/03/19 02:00:29;;;;;;;5.63;3.20;;;10.60;99.90;;;;;;5097784;28;20278;-82
2023/03/19 02:03:02;;;;;;;5.67;3.70;;;10.60;99.90;;;;;;5097467;28;20765;-82
2023/03/19 02:05:32;;;;;;;7.67;3.77;;;10.60;99.90;;;;;;5097383;28;20321;-82
2023/03/19 02:08:04;;;;;;;6.60;3.30;;;10.70;99.90;;;;;;5098494;28;20304;-82
2023/03/19 02:10:30;;;;;;;9.80;3.80;;;10.70;99.90;;;;;;5096421;28;20290;-82
2023/03/19 02:12:56;;;;;;;6.47;3.80;;;10.70;99.90;;;;;;5098076;28;20282;-81
2023/03/19 02:15:22;;;;;;;5.87;3.90;;;10.70;99.90;;;;;;5097460;28;20308;-82
2023/03/19 02:17:48;;;;;;;7.93;4.30;;;10.70;99.90;;;;;;5097436;28;20404;-81
2023/03/19 02:20:35;;;;;;;6.47;3.63;;;10.70;99.90;;;;;;5098243;28;20448;-81
2023/03/19 02:23:12;;;;;;;5.23;3.67;;;10.70;99.90;;;;;;5097683;28;20059;-81
2023/03/19 02:25:58;;;;;;;5.53;3.20;;;10.70;99.90;;;;;;5096675;28;20312;-81
2023/03/19 02:28:25;;;;;;;4.87;2.97;;;10.70;99.90;;;;;;5096707;28;20301;-82
2023/03/19 02:30:51;;;;;;;7.00;3.53;;;10.70;99.90;;;;;;5097204;28;20282;-82
2023/03/19 02:33:18;;;;;;;7.50;3.97;;;10.70;99.90;;;;;;5097133;28;20346;-82
2023/03/19 02:35:50;;;;;;;7.27;3.77;;;10.70;99.90;;;;;;5096716;28;20369;-82
2023/03/19 02:38:16;;;;;;;5.80;3.60;;;10.70;99.90;;;;;;5097475;28;20274;-82
2023/03/19 02:40:59;;;;;;;7.07;3.60;;;10.70;99.90;;;;;;5097838;28;20599;-82
2023/03/19 02:43:25;;;;;;;6.87;3.77;;;10.60;99.90;;;;;;5097223;28;20339;-82
2023/03/19 02:45:52;;;;;;;6.63;3.87;;;10.70;99.90;;;;;;5096960;28;20278;-82
2023/03/19 02:48:18;;;;;;;6.33;3.90;;;10.70;99.90;;;;;;5097191;28;20860;-82
2023/03/19 02:50:45;;;;;;;6.23;4.00;;;10.70;99.90;;;;;;5096853;28;20680;-82
2023/03/19 02:53:11;;;;;;;7.27;4.10;;;10.70;99.90;;;;;;5095586;28;20340;-82
2023/03/19 02:55:36;;;;;;;7.10;3.73;;;10.70;99.90;;;;;;5096700;28;20774;-81
2023/03/19 02:58:02;;;;;;;5.70;3.93;;;10.70;99.90;;;;;;5096770;28;20357;-81
2023/03/19 03:00:28;;;;;;;6.30;3.47;;;10.70;99.90;;;;;;5096692;28;20054;-82
2023/03/19 03:02:56;;;;;;;5.80;3.50;;;10.70;99.90;;;;;;5095137;28;20451;-82
2023/03/19 03:05:22;;;;;;;6.83;3.93;;;10.70;99.90;;;;;;5096538;28;20051;-82
2023/03/19 03:07:48;;;;;;;8.80;4.20;;;10.70;99.90;;;;;;5096120;28;20306;-81
2023/03/19 03:10:15;;;;;;;6.27;3.70;;;10.70;99.90;;;;;;5094996;28;20101;-81
2023/03/19 03:12:41;;;;;;;6.77;4.30;;;10.70;99.90;;;;;;5096937;28;20619;-81
2023/03/19 03:15:07;;;;;;;7.37;4.07;;;10.70;99.90;;;;;;5095258;28;20313;-81
2023/03/19 03:17:37;;;;;;;5.17;3.77;;;10.70;99.90;;;;;;5078503;28;20298;-81
2023/03/19 03:20:04;;;;;;;5.50;3.90;;;10.70;99.90;;;;;;5095881;28;20770;-82
2023/03/19 03:22:30;;;;;;;6.30;3.50;;;10.70;99.90;;;;;;5096229;28;20282;-83
2023/03/19 03:24:56;;;;;;;5.70;4.23;;;10.60;99.90;;;;;;5096078;28;20750;-82
2023/03/19 03:27:22;;;;;;;5.03;3.37;;;10.60;99.90;;;;;;5095038;28;20301;-82
2023/03/19 03:29:47;;;;;;;7.50;4.20;;;10.70;99.90;;;;;;5096167;28;20071;-82
2023/03/19 03:32:13;;;;;;;6.50;3.80;;;10.70;99.90;;;;;;5096503;28;20050;-82
2023/03/19 03:34:39;;;;;;;5.67;3.37;;;10.70;99.90;;;;;;5096124;28;20105;-82
2023/03/19 03:37:08;;;;;;;6.07;3.73;;;10.60;99.90;;;;;;5094974;28;20347;-82
2023/03/19 03:39:34;;;;;;;6.33;3.53;;;10.60;99.90;;;;;;5078096;28;20294;-82
2023/03/19 03:42:00;;;;;;;5.63;3.53;;;10.60;99.90;;;;;;5094591;28;20339;-82
2023/03/19 03:44:26;;;;;;;6.17;4.00;;;10.60;99.90;;;;;;5095815;28;20507;-81
2023/03/19 03:46:52;;;;;;;6.80;3.83;;;10.60;99.90;;;;;;5095795;28;20044;-81
2023/03/19 03:49:17;;;;;;;8.23;3.83;;;10.60;99.90;;;;;;5095495;28;20293;-82
2023/03/19 03:51:43;;;;;;;5.97;4.10;;;10.60;99.90;;;;;;5095631;28;20470;-82
2023/03/19 03:54:11;;;;;;;8.00;3.40;;;10.60;99.90;;;;;;5096139;28;20051;-83
2023/03/19 03:56:38;;;;;;;4.90;3.43;;;10.60;99.90;;;;;;5095496;28;20051;-82
2023/03/19 03:59:03;;;;;;;5.27;3.70;;;10.60;99.90;;;;;;5094629;28;20797;-83
2023/03/19 04:01:29;;;;;;;5.70;3.70;;;10.50;99.90;;;;;;5095702;28;20286;-82
2023/03/19 04:03:55;;;;;;;6.47;4.10;;;10.60;99.90;;;;;;5095868;28;20043;-81
2023/03/19 04:06:22;;;;;;;5.70;4.27;;;10.50;99.90;;;;;;5095562;28;20215;-82
2023/03/19 04:08:48;;;;;;;7.03;3.70;;;10.50;99.90;;;;;;5095936;28;20079;-81
2023/03/19 04:11:14;;;;;;;6.90;4.50;;;10.60;99.90;;;;;;5094280;28;20349;-82
2023/03/19 04:13:40;;;;;;;5.73;4.13;;;10.60;99.90;;;;;;5094417;28;20525;-82
2023/03/19 04:16:08;;;;;;;6.47;4.43;;;10.60;99.90;;;;;;5094639;28;20381;-82
2023/03/19 04:18:35;;;;;;;6.63;4.10;;;10.50;99.90;;;;;;5095255;28;20048;-82
2023/03/19 04:21:02;;;;;;;7.03;4.50;;;10.60;99.90;;;;;;5095112;28;20282;-82
2023/03/19 04:23:28;;;;;;;7.13;4.30;;;10.50;99.90;;;;;;5095223;28;20278;-83
2023/03/19 04:25:59;;;;;;;6.10;4.53;;;10.50;99.90;;;;;;5095282;28;20626;-82
2023/03/19 04:28:25;;;;;;;7.87;4.40;;;10.60;99.90;;;;;;5094918;28;20374;-83
2023/03/19 04:30:51;;;;;;;6.50;4.63;;;10.50;99.90;;;;;;5094952;28;20285;-82
2023/03/19 04:33:17;;;;;;;7.47;5.50;;;10.50;99.90;;;;;;5095500;28;20051;-83
2023/03/19 04:35:43;;;;;;;9.07;5.80;;;10.60;99.90;;;;;;5095236;28;20048;-82
2023/03/19 04:38:08;;;;;;;8.80;6.40;;;10.50;99.90;;;;;;5095288;28;20614;-83
2023/03/19 04:40:34;;;;;;;10.87;6.93;;;10.50;99.90;;;;;;5094796;28;20131;-83
2023/03/19 04:43:01;;;;;;;8.90;6.83;;;10.50;99.90;;;;;;5094834;28;20055;-83
2023/03/19 04:45:27;;;;;;;10.87;7.20;;;10.50;99.90;;;;;;5093482;28;20281;-83
2023/03/19 04:47:52;;;;;;;9.70;7.87;;;10.50;99.90;;;;;;5093475;28;20314;-83
2023/03/19 04:50:18;;;;;;;7.83;6.70;;;10.40;99.90;;;;;;5094925;28;20059;-82
2023/03/19 04:52:44;;;;;;;10.77;7.50;;;10.40;99.90;;;;;;5094122;28;20048;-82
2023/03/19 04:55:13;;;;;;;9.80;7.30;;;10.30;99.90;;;;;;5093331;28;20161;-83
2023/03/19 04:57:38;;;;;;;10.93;7.40;;;10.30;99.90;;;;;;5094300;28;20043;-83
2023/03/19 05:00:05;;;;;;;11.37;7.63;;;10.30;99.90;;;;;;5094362;28;20364;-83
2023/03/19 05:02:31;;;;;;;12.60;7.60;;;10.20;99.90;;;;;;5095192;28;20048;-83
2023/03/19 05:04:57;;;;;;;12.40;8.70;;;10.20;99.90;;;;;;5093437;28;20833;-82
2023/03/19 05:07:22;;;;;;;13.37;8.17;;;10.20;99.90;;;;;;5094252;28;20116;-83
2023/03/19 05:09:48;;;;;;;10.03;8.47;;;10.10;99.90;;;;;;5094274;28;20052;-83
2023/03/19 05:12:14;;;;;;;11.27;8.43;;;10.10;99.90;;;;;;5094480;28;20143;-83
2023/03/19 05:14:40;;;;;;;11.87;8.57;;;10.10;99.90;;;;;;5094237;28;20146;-83
2023/03/19 05:17:06;;;;;;;12.57;9.13;;;10.00;99.90;;;;;;5093672;28;20044;-83
2023/03/19 05:19:32;;;;;;;10.53;8.53;;;10.00;99.90;;;;;;5076505;28;20086;-83
2023/03/19 05:21:58;;;;;;;10.93;9.67;;;9.90;99.90;;;;;;5092754;28;20079;-82
2023/03/19 05:24:24;;;;;;;11.03;9.43;;;9.90;99.90;;;;;;5093940;28;20328;-83
2023/03/19 05:26:51;;;;;;;13.40;10.47;;;9.80;99.90;;;;;;5093210;28;20044;-83
2023/03/19 05:29:16;;;;;;;15.10;11.57;;;9.80;99.90;;;;;;5094038;28;20290;-83
2023/03/19 05:31:42;;;;;;;18.43;13.70;;;9.70;99.90;;;;;;5094549;28;20282;-83
2023/03/19 05:34:08;;;;;;;18.03;13.97;;;9.70;99.90;;;;;;5094019;28;20047;-84
2023/03/19 05:36:33;;;;;;;16.77;14.33;;;9.70;99.90;;;;;;5094252;28;20130;-83
2023/03/19 05:39:00;;;;;;;16.50;14.43;;;9.70;99.90;;;;;;5093513;28;20054;-83
2023/03/19 05:41:26;;;;;;;20.17;15.77;;;9.60;99.90;;;;;;5094394;28;20051;-83
2023/03/19 05:43:52;;;;;;;20.00;15.20;;;9.60;99.90;;;;;;5093957;28;20290;-83
2023/03/19 05:46:18;;;;;;;21.10;14.67;;;9.60;99.90;;;;;;5093766;28;20128;-83
2023/03/19 05:48:43;;;;;;;21.37;16.33;;;9.60;99.90;;;;;;5093416;28;20047;-82
2023/03/19 05:51:10;;;;;;;23.50;16.80;;;9.60;99.90;;;;;;5093430;28;20040;-84
2023/03/19 05:53:36;;;;;;;22.83;17.43;;;9.60;99.90;;;;;;5092855;28;20488;-84
2023/03/19 05:56:02;;;;;;;22.00;17.37;;;9.60;99.90;;;;;;5093705;28;20308;-83
2023/03/19 05:58:27;;;;;;;21.90;16.13;;;9.60;99.90;;;;;;5093750;28;20104;-84
2023/03/19 06:00:57;;;;;;;19.77;16.40;;;9.60;99.90;;;;;;5093826;28;20105;-84
2023/03/19 06:03:25;;;;;;;22.70;17.97;;;9.60;99.90;;;;;;5094185;28;20044;-84
2023/03/19 06:05:51;;;;;;;21.23;17.07;;;9.60;99.90;;;;;;5092698;28;20292;-84
2023/03/19 06:08:18;;;;;;;20.63;17.43;;;9.60;99.90;;;;;;5093612;28;20298;-84
2023/03/19 06:10:44;;;;;;;22.13;16.77;;;9.60;99.90;;;;;;5092084;28;20294;-84
2023/03/19 06:13:10;;;;;;;21.87;17.83;;;9.60;99.90;;;;;;5093539;28;20333;-83
2023/03/19 06:15:36;;;;;;;19.73;15.87;;;9.70;99.90;;;;;;5093537;28;20313;-84
2023/03/19 06:18:02;;;;;;;20.27;15.80;;;9.70;99.90;;;;;;5093711;28;20274;-84
2023/03/19 06:20:27;;;;;;;20.57;16.03;;;9.70;99.90;;;;;;5092463;28;20845;-84
2023/03/19 06:22:53;;;;;;;18.03;15.27;;;9.70;99.90;;;;;;5094494;28;20298;-83
2023/03/19 06:25:20;;;;;;;18.27;15.00;;;9.80;99.90;;;;;;5093825;28;20044;-84
2023/03/19 06:27:46;;;;;;;16.77;14.60;;;9.80;99.90;;;;;;5093672;28;20044;-84
2023/03/19 06:30:12;;;;;;;18.27;13.73;;;9.80;99.90;;;;;;5092295;28;20290;-84
2023/03/19 06:32:38;;;;;;;17.43;14.07;;;9.80;99.90;;;;;;5093751;28;20281;-84
2023/03/19 06:35:05;;;;;;;17.37;13.70;;;9.80;99.90;;;;;;5093879;28;20825;-84
2023/03/19 06:37:32;;;;;;;14.83;12.60;;;9.80;99.90;;;;;;5093948;28;20376;-84
2023/03/19 06:39:57;;;;;;;17.80;13.13;;;9.80;99.90;;;;;;5097235;28;20278;-84
2023/03/19 06:42:26;;;;;;;17.40;12.83;;;9.90;99.90;;;;;;5097477;28;20293;-84
2023/03/19 06:44:52;;;;;;;13.53;11.73;;;10.00;99.90;;;;;;5096951;28;20131;-85
2023/03/19 06:47:18;;;;;;;15.23;11.93;;;10.10;99.90;;;;;;5096887;28;20393;-84
2023/03/19 06:49:44;;;;;;;13.23;10.87;;;10.20;99.90;;;;;;5096064;28;20127;-85
2023/03/19 06:52:10;;;;;;;15.73;12.23;;;10.20;99.90;;;;;;5095820;28;20400;-84
2023/03/19 06:54:35;;;;;;;14.77;12.30;;;10.10;99.90;;;;;;5095881;28;20532;-84
2023/03/19 06:57:01;;;;;;;16.97;12.23;;;10.10;99.90;;;;;;5097525;28;20054;-84
2023/03/19 06:59:30;;;;;;;13.30;11.27;;;10.20;99.90;;;;;;5096766;28;20047;-84
2023/03/19 07:01:55;;;;;;;13.80;10.87;;;10.20;99.90;;;;;;5097347;28;20093;-84
2023/03/19 07:04:21;;;;;;;12.60;10.43;;;10.30;99.90;;;;;;5096651;28;20761;-85
2023/03/19 07:06:47;;;;;;;13.17;10.80;;;10.40;99.90;;;;;;5096605;28;20051;-84
2023/03/19 07:09:13;;;;;;;11.60;10.40;;;10.40;99.90;;;;;;5097409;28;20127;-84
2023/03/19 07:11:39;;;;;;;14.43;10.40;;;10.40;99.90;;;;;;5096213;28;20491;-84
2023/03/19 07:14:04;;;;;;;12.70;10.87;;;10.80;99.90;;;;;;5095723;28;20052;-85
2023/03/19 07:16:30;;;;;;;12.60;8.57;;;11.80;99.90;;;;;;5096575;28;20044;-85
2023/03/19 07:18:56;;;;;;;10.20;8.83;;;12.80;99.90;;;;;;5095374;28;20575;-84
2023/03/19 07:21:22;;;;;;;12.73;9.57;;;14.00;99.90;;;;;;5096079;28;20051;-85
2023/03/19 07:23:49;;;;;;;10.73;9.60;;;15.00;99.90;;;;;;5096887;28;20079;-84
2023/03/19 07:26:16;;;;;;;10.90;9.07;;;15.80;99.90;;;;;;5078656;28;20048;-84
2023/03/19 07:28:41;;;;;;;13.43;11.83;;;16.50;99.90;;;;;;5094716;28;20306;-84
2023/03/19 07:31:07;;;;;;;12.60;11.17;;;16.70;99.90;;;;;;5096271;28;20347;-84
2023/03/19 07:33:36;;;;;;;14.20;12.60;;;16.40;99.90;;;;;;5078398;28;20052;-85
2023/03/19 07:36:02;;;;;;;15.80;12.17;;;15.70;99.90;;;;;;5096651;28;20131;-84
2023/03/19 07:38:28;;;;;;;15.43;13.60;;;15.10;99.90;;;;;;5094899;28;20376;-85
2023/03/19 07:40:54;;;;;;;15.90;14.20;;;14.40;99.90;;;;;;5095044;28;20051;-84
2023/03/19 07:43:19;;;;;;;17.70;14.20;;;13.90;99.90;;;;;;5096025;28;20060;-84
2023/03/19 07:45:45;;;;;;;21.00;18.47;;;13.40;99.90;;;;;;5096200;28;20480;-84
2023/03/19 07:48:11;;;;;;;22.87;19.73;;;13.00;99.90;;;;;;5096120;28;20048;-84
2023/03/19 07:50:37;;;;;;;22.07;19.67;;;12.60;99.90;;;;;;5096158;28;20122;-84
2023/03/19 07:53:03;;;;;;;25.23;22.63;;;12.30;99.90;;;;;;5096041;28;20781;-82
2023/03/19 07:55:29;;;;;;;25.87;23.17;;;12.10;99.90;;;;;;5095621;28;20044;-82
2023/03/19 07:57:55;;;;;;;27.70;24.77;;;11.90;99.90;;;;;;5096101;28;20032;-84
2023/03/19 08:00:21;;;;;;;26.13;23.43;;;11.70;99.90;;;;;;5095276;28;20285;-84
2023/03/19 08:02:47;;;;;;;26.27;23.47;;;11.60;99.90;;;;;;5096226;28;20295;-85
2023/03/19 08:05:13;;;;;;;27.67;24.70;;;11.40;99.90;;;;;;5095919;28;20384;-84
2023/03/19 08:07:40;;;;;;;25.33;22.63;;;11.40;99.90;;;;;;5094179;28;20309;-83
2023/03/19 08:10:09;;;;;;;28.20;25.27;;;11.30;99.90;;;;;;5097110;28;20058;-86
2023/03/19 08:12:39;;;;;;;30.17;25.63;;;11.20;99.90;;;;;;5093662;28;20290;-85
2023/03/19 08:15:07;;;;;;;25.20;22.50;;;11.10;99.90;;;;;;5078242;28;20327;-86
2023/03/19 08:17:37;;;;;;;26.70;23.83;;;11.20;99.90;;;;;;5094128;28;20357;-85
2023/03/19 08:20:12;;;;;;;29.10;25.13;;;11.10;99.90;;;;;;5094273;28;20286;-86
2023/03/19 08:22:39;;;;;;;30.30;26.63;;;11.10;99.90;;;;;;5093796;28;20336;-85
2023/03/19 08:25:06;;;;;;;32.63;29.07;;;11.10;99.90;;;;;;5095091;28;20325;-85
2023/03/19 08:27:34;;;;;;;31.97;27.87;;;11.10;99.90;;;;;;5094970;28;20298;-85
2023/03/19 08:30:06;;;;;;;30.90;27.10;;;11.10;99.90;;;;;;5095032;28;20766;-85
2023/03/19 08:32:31;;;;;;;31.23;27.97;;;11.10;99.90;;;;;;5094844;28;20290;-85
2023/03/19 08:34:57;;;;;;;30.93;25.77;;;11.10;99.90;;;;;;5093921;28;20879;-85
2023/03/19 08:37:23;;;;;;;32.87;29.20;;;11.10;99.90;;;;;;5095124;28;20047;-84
2023/03/19 08:39:52;;;;;;;33.60;27.90;;;11.10;99.90;;;;;;5077321;28;20475;-84
2023/03/19 08:42:18;;;;;;;31.67;28.17;;;11.10;99.90;;;;;;5094512;28;20056;-85
2023/03/19 08:44:44;;;;;;;30.37;26.90;;;11.10;99.90;;;;;;5095614;28;20607;-85
2023/03/19 08:47:11;;;;;;;30.00;25.90;;;11.10;99.90;;;;;;5095101;28;20278;-85
2023/03/19 08:49:37;;;;;;;30.27;25.83;;;11.10;99.90;;;;;;5094836;28;20052;-86
2023/03/19 08:52:03;;;;;;;26.97;23.10;;;11.10;99.90;;;;;;5093695;28;20758;-84
2023/03/19 08:54:29;;;;;;;27.77;24.57;;;11.00;99.90;;;;;;5093550;28;20290;-85
2023/03/19 08:56:54;;;;;;;28.00;25.00;;;11.00;99.90;;;;;;5094696;28;20290;-85
2023/03/19 08:59:20;;;;;;;27.33;24.30;;;10.90;99.90;;;;;;5093710;28;20048;-85
2023/03/19 09:01:51;;;;;;;29.60;25.17;;;10.90;99.90;;;;;;5093583;28;20541;-85
2023/03/19 09:04:17;;;;;;;30.77;26.80;;;10.90;99.90;;;;;;5093243;28;20048;-84
2023/03/19 09:06:43;;;;;;;29.93;25.20;;;10.90;99.90;;;;;;5076496;28;20293;-84
2023/03/19 09:09:09;;;;;;;30.17;25.63;;;10.80;99.90;;;;;;5076237;28;20040;-85
2023/03/19 09:11:35;;;;;;;30.70;26.13;;;10.80;99.90;;;;;;5092929;28;20343;-85
2023/03/19 09:14:02;;;;;;;34.37;28.80;;;10.80;99.90;;;;;;5095034;28;20539;-86
2023/03/19 09:16:28;;;;;;;32.70;29.00;;;10.80;99.90;;;;;;5076577;28;20510;-84
2023/03/19 09:18:55;;;;;;;31.93;27.10;;;10.70;99.90;;;;;;5077182;28;20282;-84
2023/03/19 09:21:20;;;;;;;32.47;27.83;;;10.70;99.90;;;;;;5094865;28;20327;-85
2023/03/19 09:23:46;;;;;;;32.27;27.53;;;10.70;99.90;;;;;;5094140;28;20753;-85
2023/03/19 09:26:12;;;;;;;29.30;24.33;;;10.70;99.90;;;;;;5094222;28;20048;-85
2023/03/19 09:28:37;;;;;;;35.13;28.33;;;10.70;99.90;;;;;;5094758;28;20043;-84
2023/03/19 09:31:06;;;;;;;34.47;27.70;;;10.60;99.90;;;;;;5076094;28;20387;-85
2023/03/19 09:33:32;;;;;;;33.67;27.67;;;10.70;99.90;;;;;;5076822;28;20073;-84
2023/03/19 09:35:57;;;;;;;31.67;25.63;;;10.70;99.90;;;;;;5094684;28;20360;-83
2023/03/19 09:38:23;;;;;;;31.93;25.67;;;10.70;99.90;;;;;;5092791;28;20286;-81
2023/03/19 09:41:07;;;;;;;36.63;28.33;;;10.70;99.90;;;;;;5096208;28;20052;-81
2023/03/19 09:43:42;;;;;;;36.67;28.33;;;10.60;99.90;;;;;;5092766;28;20046;-83
2023/03/19 09:46:21;;;;;;;36.97;27.38;;;10.60;99.90;;;;;;5093269;28;20286;-83
2023/03/19 09:49:05;;;;;;;38.63;28.30;;;10.60;99.90;;;;;;5092780;28;20392;-82
2023/03/19 09:51:47;;;;;;;38.67;29.23;;;10.60;99.90;;;;;;5092886;28;20297;-82
2023/03/19 09:54:28;;;;;;;44.03;31.03;;;10.60;99.90;;;;;;5093948;28;20656;-83
2023/03/19 09:56:55;;;;;;;39.30;28.30;;;10.60;99.90;;;;;;5092617;28;20284;-81
2023/03/19 09:59:22;;;;;;;39.50;28.97;;;10.50;99.90;;;;;;5093609;28;20278;-82
2023/03/19 10:02:00;;;;;;;44.20;31.73;;;10.60;99.90;;;;;;5092540;28;20836;-83
2023/03/19 10:04:51;;;;;;;43.03;30.53;;;10.60;99.90;;;;;;5092464;28;20282;-83
2023/03/19 10:08:01;;;;;;;41.27;28.70;;;10.60;99.90;;;;;;5092561;28;20321;-83
2023/03/19 10:10:48;;;;;;;40.27;28.67;;;10.60;99.90;;;;;;5073886;28;20308;-83
2023/03/19 10:13:52;;;;;;;41.90;31.13;;;10.60;99.90;;;;;;5095037;28;20626;-81
2023/03/19 10:16:25;;;;;;;43.73;30.40;;;10.70;99.90;;;;;;5065628;28;20291;-81
2023/03/19 10:18:54;;;;;;;43.93;30.83;;;10.70;99.90;;;;;;5097592;28;20298;-82
2023/03/19 10:21:31;;;;;;;44.07;30.63;;;10.70;99.90;;;;;;5097388;28;20621;-81
2023/03/19 10:24:11;;;;;;;40.27;28.13;;;10.80;99.90;;;;;;5097325;28;20281;-81
2023/03/19 10:26:37;;;;;;;44.13;32.40;;;10.80;99.90;;;;;;5080207;28;20297;-82
2023/03/19 10:29:13;;;;;;;43.40;30.20;;;10.80;99.90;;;;;;5097685;28;20336;-82
2023/03/19 10:31:52;;;;;;;44.87;29.57;;;10.80;99.90;;;;;;5097386;28;20279;-82
2023/03/19 10:34:31;;;;;;;39.57;29.07;;;10.80;99.90;;;;;;5096423;28;20831;-82
2023/03/19 10:37:00;;;;;;;45.50;30.10;;;10.70;99.90;;;;;;5079438;28;20286;-83
2023/03/19 10:39:26;;;;;;;46.63;31.00;;;10.70;99.90;;;;;;5095958;28;20297;-80
2023/03/19 10:42:13;;;;;;;50.03;33.60;;;10.70;99.90;;;;;;5095903;28;20286;-81
2023/03/19 10:45:00;;;;;;;50.03;33.87;;;10.70;99.90;;;;;;5095885;28;20785;-81
2023/03/19 10:47:26;;;;;;;44.13;30.23;;;10.70;99.90;;;;;;5097260;28;20685;-79
2023/03/19 10:49:52;;;;;;;54.20;34.47;;;10.70;99.90;;;;;;5096733;28;20289;-80
2023/03/19 10:52:29;;;;;;;44.77;31.30;;;10.70;99.90;;;;;;5078748;28;20278;-82
2023/03/19 10:55:01;;;;;;;47.13;30.67;;;10.70;99.90;;;;;;5078180;28;20062;-80
2023/03/19 10:57:30;;;;;;;49.03;31.93;;;10.80;99.90;;;;;;5095812;28;20278;-80
2023/03/19 11:00:03;;;;;;;49.57;34.40;;;10.80;99.90;;;;;;5094296;28;20289;-79
2023/03/19 11:02:30;;;;;;;46.97;32.93;;;10.80;99.90;;;;;;5095445;28;20290;-79
2023/03/19 11:05:11;;;;;;;50.40;33.13;;;10.80;99.90;;;;;;5094075;28;20734;-81
2023/03/19 11:07:38;;;;;;;49.50;32.83;;;10.80;99.90;;;;;;5095740;28;20298;-83
2023/03/19 11:10:11;;;;;;;53.27;34.37;;;10.80;99.90;;;;;;5095862;28;20278;-84
2023/03/19 11:12:37;;;;;;;51.73;34.50;;;10.80;99.90;;;;;;5094327;28;20375;-85
2023/03/19 11:15:17;;;;;;;50.20;33.93;;;10.80;99.90;;;;;;5094123;28;20744;-83
2023/03/19 11:17:48;;;;;;;52.80;35.03;;;10.80;99.90;;;;;;5093475;28;20746;-82
2023/03/19 11:20:14;;;;;;;48.80;34.00;;;10.80;99.90;;;;;;5095622;28;20313;-85
2023/03/19 11:22:41;;;;;;;54.57;35.07;;;10.80;99.90;;;;;;5094430;28;20591;-87
2023/03/19 11:25:30;;;;;;;52.33;32.10;;;10.80;99.90;;;;;;5094757;28;20339;-84
2023/03/19 11:28:07;;;;;;;47.13;26.83;;;10.70;99.90;;;;;;5093260;28;20298;-84
2023/03/19 11:30:37;;;;;;;39.40;24.60;;;10.70;99.90;;;;;;5095196;28;20274;-84
2023/03/19 11:33:11;;;;;;;40.63;25.30;;;10.70;99.90;;;;;;5094385;28;20355;-86
2023/03/19 11:35:57;;;;;;;42.70;26.17;;;10.60;99.90;;;;;;5095146;28;20644;-85
2023/03/19 11:38:48;;;;;;;38.13;24.03;;;10.70;99.90;;;;;;5093650;28;20278;-81
2023/03/19 11:41:23;;;;;;;36.73;23.17;;;10.70;99.90;;;;;;5096081;28;20286;-85
2023/03/19 11:44:19;;;;;;;35.65;21.17;;;10.70;99.90;;;;;;5078033;28;20298;-83
2023/03/19 11:47:14;;;;;;;32.27;20.57;;;10.70;99.90;;;;;;5096120;28;20493;-83
2023/03/19 11:50:16;;;;;;;30.97;19.27;;;10.70;99.90;;;;;;5078442;28;20282;-84
2023/03/19 11:53:18;;;;;;;30.13;18.70;;;10.80;99.90;;;;;;5096418;28;20289;-84
2023/03/19 11:56:23;;;;;;;36.90;21.37;;;10.80;99.90;;;;;;5095030;28;20326;-84
2023/03/19 11:58:56;;;;;;;31.03;18.63;;;10.80;99.90;;;;;;5084548;28;20343;-84
2023/03/19 12:01:31;;;;;;;29.30;18.13;;;10.80;99.90;;;;;;5095667;28;20326;-83
2023/03/19 12:04:18;;;;;;;32.22;20.33;;;10.80;99.90;;;;;;5094862;28;20294;-83
2023/03/19 12:07:05;;;;;;;34.37;20.97;;;10.90;99.90;;;;;;5094315;28;20044;-82
2023/03/19 12:10:00;;;;;;;30.90;19.10;;;10.90;99.90;;;;;;5095252;28;20297;-83
2023/03/19 12:12:48;;;;;;;30.60;18.67;;;10.90;99.90;;;;;;5077022;28;20298;-84
2023/03/19 12:15:30;;;;;;;29.77;20.10;;;10.90;99.90;;;;;;5095830;28;20286;-84
2023/03/19 12:18:14;;;;;;;33.43;20.33;;;10.90;99.90;;;;;;5092650;28;20361;-84
2023/03/19 12:20:49;;;;;;;33.67;19.57;;;10.90;99.90;;;;;;5093464;28;20286;-83
2023/03/19 12:23:35;;;;;;;33.00;19.60;;;10.90;99.90;;;;;;5093790;28;20293;-84
2023/03/19 12:26:07;;;;;;;32.17;19.67;;;10.90;99.90;;;;;;5094522;28;20055;-84
2023/03/19 12:28:40;;;;;;;32.17;20.10;;;10.90;99.90;;;;;;5094813;28;20302;-85
2023/03/19 12:31:40;;;;;;;30.17;18.77;;;11.00;99.90;;;;;;5093433;28;20282;-83
2023/03/19 12:34:32;;;;;;;26.93;17.90;;;11.00;99.90;;;;;;5094711;28;20669;-85
2023/03/19 12:37:16;;;;;;;28.47;18.23;;;11.00;99.90;;;;;;5093654;28;20290;-87
2023/03/19 12:40:11;;;;;;;28.37;17.13;;;11.00;99.90;;;;;;5093779;28;20290;-86
2023/03/19 12:42:42;;;;;;;28.57;17.10;;;11.00;99.90;;;;;;5057416;28;20768;-85
2023/03/19 12:45:24;;;;;;;30.70;17.43;;;11.00;99.90;;;;;;5093613;28;20294;-86
2023/03/19 12:47:56;;;;;;;26.87;17.10;;;11.00;99.90;;;;;;5093266;28;20758;-84